Time;durP1;ratioP1;P1;durP2;ratioP2;P2;SDS_P1;SDS_P2;PMS_P1;PMS_P2;Temp;Humidity;BMP_temperature;BMP_pressure;BME280_temperature;BME280_humidity;BME280_pressure;Samples;Min_cycle;Max_cycle;Signal;HPM_P1;HPM_P2
2022/08/21 00:01:32;;;;;;;1.50;0.93;;;18.60;98.20;;;;;;6095466;23;20446;-83
2022/08/21 00:04:04;;;;;;;1.50;0.90;;;18.60;98.20;;;;;;6124342;23;20426;-81
2022/08/21 00:06:32;;;;;;;1.50;0.90;;;18.60;98.20;;;;;;6095281;23;21048;-80
2022/08/21 00:08:59;;;;;;;1.50;0.90;;;18.50;98.20;;;;;;6116353;23;20470;-79
2022/08/21 00:11:27;;;;;;;1.50;0.90;;;18.50;98.20;;;;;;6104639;23;20469;-79
2022/08/21 00:13:56;;;;;;;1.50;1.00;;;18.50;98.20;;;;;;6116218;23;20763;-82
2022/08/21 00:16:23;;;;;;;1.50;1.00;;;18.50;98.20;;;;;;6103505;23;21032;-80
2022/08/21 00:18:51;;;;;;;1.50;0.90;;;18.40;98.20;;;;;;6110741;23;20442;-81
2022/08/21 00:21:18;;;;;;;1.50;0.97;;;18.40;98.20;;;;;;6096255;23;20923;-81
2022/08/21 00:23:45;;;;;;;1.50;0.90;;;18.40;98.20;;;;;;6121167;23;20422;-81
2022/08/21 00:26:12;;;;;;;1.50;0.90;;;18.30;98.20;;;;;;6103175;23;20441;-79
2022/08/21 00:28:39;;;;;;;1.47;0.90;;;18.30;98.20;;;;;;6123043;23;21050;-82
2022/08/21 00:31:08;;;;;;;1.50;0.90;;;18.20;98.20;;;;;;6094762;23;20446;-82
2022/08/21 00:33:35;;;;;;;1.47;1.00;;;18.30;98.20;;;;;;6124544;23;20450;-80
2022/08/21 00:36:03;;;;;;;1.50;0.90;;;18.20;98.20;;;;;;6105310;23;20425;-82
2022/08/21 00:38:30;;;;;;;1.43;0.90;;;18.10;98.20;;;;;;6115000;23;20480;-81
2022/08/21 00:41:00;;;;;;;1.50;1.10;;;18.10;98.20;;;;;;6090771;23;20411;-81
2022/08/21 00:43:36;;;;;;;1.50;1.00;;;18.10;98.20;;;;;;6132366;23;20423;-81
2022/08/21 00:46:05;;;;;;;1.50;1.00;;;18.10;98.20;;;;;;6104180;23;20406;-80
2022/08/21 00:48:34;;;;;;;1.50;1.00;;;18.10;98.20;;;;;;6114447;23;20956;-81
2022/08/21 00:51:05;;;;;;;1.50;0.97;;;18.10;98.20;;;;;;6092999;23;21028;-83
2022/08/21 00:53:32;;;;;;;1.50;1.00;;;18.10;98.20;;;;;;6123733;23;20441;-81
2022/08/21 00:56:02;;;;;;;1.50;0.90;;;18.10;98.20;;;;;;6093432;23;20426;-83
2022/08/21 00:58:32;;;;;;;1.50;0.90;;;18.00;98.20;;;;;;6125473;23;20442;-81
2022/08/21 01:01:02;;;;;;;1.50;1.00;;;17.90;98.20;;;;;;6103693;23;20414;-83
2022/08/21 01:03:29;;;;;;;1.50;1.00;;;17.80;98.20;;;;;;6104285;23;20773;-79
2022/08/21 01:05:58;;;;;;;1.50;0.90;;;17.80;98.20;;;;;;6101711;23;20564;-82
2022/08/21 01:08:27;;;;;;;1.50;1.00;;;17.80;98.20;;;;;;6136271;23;20458;-81
2022/08/21 01:10:55;;;;;;;1.47;0.90;;;17.70;98.20;;;;;;6092411;23;20452;-81
2022/08/21 01:13:25;;;;;;;1.50;1.00;;;17.70;98.20;;;;;;6132617;23;20423;-80
2022/08/21 01:15:59;;;;;;;1.50;0.90;;;17.70;98.20;;;;;;6094255;23;20461;-80
2022/08/21 01:18:27;;;;;;;1.50;1.00;;;17.70;98.20;;;;;;6115620;23;20945;-81
2022/08/21 01:21:06;;;;;;;1.50;0.90;;;17.70;98.20;;;;;;6098139;23;20419;-80
2022/08/21 01:23:34;;;;;;;1.50;1.00;;;17.70;98.20;;;;;;6120781;23;20438;-81
2022/08/21 01:26:04;;;;;;;1.50;0.97;;;17.60;98.20;;;;;;6090311;23;20441;-81
2022/08/21 01:28:36;;;;;;;1.50;1.00;;;17.60;98.20;;;;;;6119214;23;20446;-81
2022/08/21 01:31:08;;;;;;;1.77;1.30;;;17.60;98.20;;;;;;6090498;23;20449;-83
2022/08/21 01:33:35;;;;;;;1.50;0.90;;;17.60;98.20;;;;;;6128977;23;20419;-84
2022/08/21 01:36:04;;;;;;;1.50;0.90;;;17.60;98.20;;;;;;6110590;23;20415;-82
2022/08/21 01:38:32;;;;;;;1.50;0.90;;;17.60;98.20;;;;;;6099403;23;20454;-80
2022/08/21 01:40:59;;;;;;;1.50;1.00;;;17.60;98.20;;;;;;6085014;23;20410;-83
2022/08/21 01:43:27;;;;;;;1.50;1.00;;;17.50;98.20;;;;;;6131437;23;20526;-82
2022/08/21 01:45:54;;;;;;;1.50;0.90;;;17.40;98.20;;;;;;6111489;23;20472;-81
2022/08/21 01:48:21;;;;;;;1.50;0.90;;;17.40;98.20;;;;;;6109425;23;20532;-82
2022/08/21 01:50:48;;;;;;;1.50;1.10;;;17.40;98.20;;;;;;6089063;23;20422;-80
2022/08/21 01:53:16;;;;;;;1.50;0.90;;;17.40;98.20;;;;;;6123757;23;20749;-82
2022/08/21 01:55:44;;;;;;;1.50;0.90;;;17.40;98.20;;;;;;6100421;23;20458;-83
2022/08/21 01:58:12;;;;;;;1.50;1.00;;;17.40;98.20;;;;;;6103103;23;20453;-81
2022/08/21 02:00:39;;;;;;;1.50;0.90;;;17.40;98.20;;;;;;6104441;23;20474;-81
2022/08/21 02:03:06;;;;;;;1.50;1.00;;;17.40;98.20;;;;;;6110686;23;20452;-81
2022/08/21 02:05:33;;;;;;;1.50;0.90;;;17.40;98.20;;;;;;6100546;23;20423;-82
2022/08/21 02:08:00;;;;;;;1.43;1.00;;;17.40;98.20;;;;;;6109019;23;20461;-82
2022/08/21 02:10:32;;;;;;;1.50;1.00;;;17.30;98.20;;;;;;6100511;23;20434;-82
2022/08/21 02:13:00;;;;;;;1.50;1.00;;;17.30;98.20;;;;;;6107208;23;20452;-82
2022/08/21 02:15:28;;;;;;;1.70;1.40;;;17.30;98.20;;;;;;6108876;23;20457;-82
2022/08/21 02:17:57;;;;;;;1.50;0.90;;;17.30;98.20;;;;;;6105233;23;20977;-80
2022/08/21 02:20:27;;;;;;;1.50;0.90;;;17.30;98.20;;;;;;6096349;23;20449;-80
2022/08/21 02:22:55;;;;;;;1.50;0.97;;;17.20;98.20;;;;;;6105120;23;20446;-81
2022/08/21 02:25:23;;;;;;;1.50;1.00;;;17.20;98.20;;;;;;6097873;23;20434;-82
2022/08/21 02:27:53;;;;;;;1.50;1.00;;;17.20;98.20;;;;;;6112986;23;20469;-82
2022/08/21 02:30:22;;;;;;;1.50;1.00;;;17.20;98.20;;;;;;6102486;23;20486;-81
2022/08/21 02:32:49;;;;;;;1.50;1.00;;;17.20;98.20;;;;;;6112967;23;20446;-80
2022/08/21 02:35:16;;;;;;;1.50;1.00;;;17.20;98.20;;;;;;6101682;23;20415;-81
2022/08/21 02:37:45;;;;;;;1.50;0.90;;;17.20;98.20;;;;;;6101438;23;20841;-82
2022/08/21 02:40:14;;;;;;;1.50;1.00;;;17.20;98.20;;;;;;6101641;23;20431;-82
2022/08/21 02:42:41;;;;;;;1.50;1.03;;;17.20;98.20;;;;;;6104893;23;20446;-81
2022/08/21 02:45:10;;;;;;;1.50;1.00;;;17.10;98.20;;;;;;6098194;23;20430;-82
2022/08/21 02:47:38;;;;;;;1.50;0.90;;;17.10;98.20;;;;;;6105297;23;20944;-82
2022/08/21 02:50:06;;;;;;;1.50;0.90;;;17.00;98.20;;;;;;6099979;23;20427;-81
2022/08/21 02:52:33;;;;;;;1.50;0.93;;;17.00;98.20;;;;;;6098235;23;20442;-82
2022/08/21 02:55:00;;;;;;;1.50;0.90;;;16.90;98.20;;;;;;6098997;23;20426;-79
2022/08/21 02:57:32;;;;;;;1.50;1.00;;;17.00;98.20;;;;;;6102316;23;20480;-83
2022/08/21 02:59:59;;;;;;;1.50;1.00;;;16.90;98.20;;;;;;6105497;23;20422;-80
2022/08/21 03:02:28;;;;;;;1.50;1.00;;;16.90;98.20;;;;;;6107377;23;20446;-81
2022/08/21 03:04:55;;;;;;;1.50;1.00;;;16.90;98.20;;;;;;6103658;23;20423;-80
2022/08/21 03:07:23;;;;;;;1.50;0.90;;;16.90;98.20;;;;;;6097492;23;20425;-79
2022/08/21 03:09:50;;;;;;;1.50;0.90;;;16.90;98.20;;;;;;6099500;23;20431;-82
2022/08/21 03:12:17;;;;;;;1.50;1.00;;;16.90;98.20;;;;;;6098952;23;20445;-81
2022/08/21 03:14:44;;;;;;;1.50;1.00;;;16.90;98.20;;;;;;6102070;23;20422;-82
2022/08/21 03:17:11;;;;;;;1.50;1.00;;;16.90;98.20;;;;;;6098469;23;20449;-80
2022/08/21 03:19:40;;;;;;;1.50;0.90;;;16.90;98.20;;;;;;6100961;23;20423;-82
2022/08/21 03:22:07;;;;;;;1.50;1.00;;;16.90;98.20;;;;;;6097499;23;21055;-80
2022/08/21 03:24:34;;;;;;;1.50;0.97;;;16.90;98.20;;;;;;6115613;23;20426;-80
2022/08/21 03:27:01;;;;;;;1.50;1.00;;;16.80;98.20;;;;;;6101202;23;20536;-81
2022/08/21 03:29:28;;;;;;;1.50;1.00;;;16.80;98.20;;;;;;6114121;23;20471;-80
2022/08/21 03:31:55;;;;;;;1.50;1.00;;;16.80;98.20;;;;;;6101649;23;20485;-82
2022/08/21 03:34:22;;;;;;;1.50;1.00;;;16.80;98.20;;;;;;6106234;23;20419;-82
2022/08/21 03:36:51;;;;;;;1.50;1.00;;;16.80;98.20;;;;;;6100907;23;20972;-81
2022/08/21 03:39:18;;;;;;;1.50;0.97;;;16.70;98.20;;;;;;6120946;23;20446;-81
2022/08/21 03:41:46;;;;;;;1.50;1.00;;;16.70;98.20;;;;;;6100127;23;20426;-81
2022/08/21 03:44:14;;;;;;;1.50;0.97;;;16.70;98.20;;;;;;6101096;23;20919;-80
2022/08/21 03:46:41;;;;;;;1.50;0.90;;;16.70;98.20;;;;;;6100310;23;20521;-81
2022/08/21 03:49:08;;;;;;;1.50;1.00;;;16.70;98.20;;;;;;6114015;23;20443;-83
2022/08/21 03:51:35;;;;;;;1.50;1.00;;;16.60;98.20;;;;;;6101837;23;20422;-82
2022/08/21 03:54:04;;;;;;;1.50;1.00;;;16.60;98.20;;;;;;6102297;23;20430;-81
2022/08/21 03:56:31;;;;;;;1.50;1.03;;;16.50;98.20;;;;;;6096297;23;20461;-80
2022/08/21 03:58:59;;;;;;;1.50;1.00;;;16.40;98.20;;;;;;6113770;23;20474;-81
2022/08/21 04:01:26;;;;;;;1.50;1.00;;;16.40;98.20;;;;;;6091932;23;20516;-82
2022/08/21 04:03:53;;;;;;;1.50;1.00;;;16.30;98.20;;;;;;6119285;23;20486;-82
2022/08/21 04:06:20;;;;;;;1.50;1.00;;;16.30;98.20;;;;;;6093147;23;20468;-80
2022/08/21 04:08:47;;;;;;;1.50;0.90;;;16.30;98.20;;;;;;6118004;23;20570;-81
2022/08/21 04:11:16;;;;;;;1.50;0.93;;;16.30;98.20;;;;;;6091811;23;20445;-81
2022/08/21 04:13:44;;;;;;;1.50;1.00;;;16.40;98.20;;;;;;6126834;23;20446;-82
2022/08/21 04:16:11;;;;;;;1.50;1.00;;;16.40;98.20;;;;;;6089164;23;20445;-80
2022/08/21 04:18:39;;;;;;;1.50;1.00;;;16.40;98.20;;;;;;6116706;23;20518;-82
2022/08/21 04:21:07;;;;;;;1.50;1.00;;;16.40;98.20;;;;;;6101672;23;20422;-81
2022/08/21 04:23:34;;;;;;;1.50;1.10;;;16.40;98.20;;;;;;6110396;23;20498;-80
2022/08/21 04:26:01;;;;;;;1.50;1.00;;;16.40;98.20;;;;;;6097925;23;20461;-81
2022/08/21 04:28:30;;;;;;;1.50;0.90;;;16.40;98.20;;;;;;6121175;23;20439;-81
2022/08/21 04:30:59;;;;;;;1.50;0.90;;;16.40;98.20;;;;;;6097825;23;20415;-82
2022/08/21 04:33:26;;;;;;;1.50;1.00;;;16.40;98.20;;;;;;6128546;23;21010;-83
2022/08/21 04:35:53;;;;;;;1.50;1.00;;;16.40;98.20;;;;;;6085274;23;21010;-78
2022/08/21 04:38:21;;;;;;;1.50;1.00;;;16.30;98.20;;;;;;6132403;23;20458;-79
2022/08/21 04:40:49;;;;;;;1.50;0.90;;;16.30;98.20;;;;;;6086502;23;20445;-81
2022/08/21 04:43:19;;;;;;;1.50;1.00;;;16.40;98.20;;;;;;6119395;23;20906;-82
2022/08/21 04:45:49;;;;;;;1.50;1.00;;;16.30;98.20;;;;;;6097098;23;20422;-80
2022/08/21 04:48:19;;;;;;;1.50;0.90;;;16.30;98.20;;;;;;6082584;23;21012;-82
2022/08/21 04:50:53;;;;;;;1.50;1.00;;;16.20;98.20;;;;;;6110293;23;20442;-81
2022/08/21 04:53:28;;;;;;;1.50;1.00;;;16.10;98.20;;;;;;6084353;23;20847;-81
2022/08/21 04:55:58;;;;;;;1.50;1.00;;;16.10;98.20;;;;;;6085084;23;20414;-80
2022/08/21 04:58:27;;;;;;;1.50;1.00;;;16.10;98.20;;;;;;6131108;23;20443;-81
2022/08/21 05:00:59;;;;;;;1.50;1.00;;;16.00;98.20;;;;;;6100193;23;20514;-81
2022/08/21 05:03:26;;;;;;;1.50;1.00;;;16.00;98.20;;;;;;6100173;23;20410;-81
2022/08/21 05:05:54;;;;;;;1.50;1.00;;;16.10;98.20;;;;;;6084113;23;20426;-78
2022/08/21 05:08:25;;;;;;;1.50;1.00;;;16.10;98.20;;;;;;6117099;23;20442;-78
2022/08/21 05:10:52;;;;;;;1.50;1.00;;;16.10;98.20;;;;;;6094825;23;20407;-78
2022/08/21 05:13:19;;;;;;;1.50;1.00;;;16.20;98.20;;;;;;6096600;23;20461;-79
2022/08/21 05:15:47;;;;;;;1.50;1.00;;;16.30;98.20;;;;;;6104996;23;20423;-78
2022/08/21 05:18:16;;;;;;;1.50;1.00;;;16.20;98.20;;;;;;6090657;23;20447;-78
2022/08/21 05:20:44;;;;;;;1.50;1.00;;;16.20;98.20;;;;;;6094868;23;20510;-78
2022/08/21 05:23:14;;;;;;;1.50;0.90;;;16.20;98.20;;;;;;6103742;23;20855;-78
2022/08/21 05:25:43;;;;;;;1.50;1.00;;;16.20;98.20;;;;;;6103437;23;20426;-79
2022/08/21 05:28:12;;;;;;;1.50;1.00;;;16.20;98.20;;;;;;6103258;23;20458;-79
2022/08/21 05:30:39;;;;;;;1.50;1.00;;;16.20;98.20;;;;;;6094416;23;20477;-79
2022/08/21 05:33:07;;;;;;;1.50;1.00;;;16.20;98.20;;;;;;6102799;23;20988;-79
2022/08/21 05:35:36;;;;;;;1.50;1.10;;;16.30;98.20;;;;;;6093943;23;20422;-79
2022/08/21 05:38:04;;;;;;;1.50;0.90;;;16.50;98.20;;;;;;6106134;23;20458;-78
2022/08/21 05:40:31;;;;;;;1.50;1.00;;;16.60;98.20;;;;;;6106143;23;20438;-79
2022/08/21 05:42:59;;;;;;;1.50;1.00;;;16.70;98.20;;;;;;6104221;23;20461;-80
2022/08/21 05:45:29;;;;;;;1.87;1.30;;;16.80;98.20;;;;;;6096010;23;20486;-79
2022/08/21 05:47:57;;;;;;;1.50;0.93;;;16.80;98.20;;;;;;6104497;23;20450;-80
2022/08/21 05:50:25;;;;;;;1.50;1.00;;;16.90;98.20;;;;;;6107210;23;20431;-81
2022/08/21 05:52:54;;;;;;;1.50;1.00;;;17.00;98.20;;;;;;6107959;23;20452;-81
2022/08/21 05:55:21;;;;;;;1.50;1.00;;;17.20;98.20;;;;;;6093041;23;20647;-81
2022/08/21 05:57:49;;;;;;;1.50;1.00;;;17.40;98.20;;;;;;6094079;23;20939;-82
2022/08/21 06:00:17;;;;;;;1.50;1.00;;;17.60;98.20;;;;;;6102686;23;20421;-81
2022/08/21 06:02:45;;;;;;;1.50;1.00;;;17.80;98.20;;;;;;6103057;23;20441;-81
2022/08/21 06:05:12;;;;;;;1.50;0.90;;;17.90;98.20;;;;;;6101643;23;20473;-81
2022/08/21 06:07:39;;;;;;;1.50;0.90;;;18.10;98.20;;;;;;6101646;23;20453;-82
2022/08/21 06:10:09;;;;;;;1.50;1.00;;;18.20;98.20;;;;;;6094472;23;20853;-81
2022/08/21 06:12:39;;;;;;;1.50;1.00;;;18.30;98.20;;;;;;6100549;23;20450;-81
2022/08/21 06:18:06;;;;;;;1.50;0.90;;;18.70;98.20;;;;;;6076465;23;21121;-81
2022/08/21 06:24:22;;;;;;;1.50;1.00;;;19.20;98.20;;;;;;5889976;24;20828;-81
2022/08/21 06:27:01;;;;;;;1.50;0.93;;;19.40;97.40;;;;;;5999831;23;20447;-82
2022/08/21 06:29:28;;;;;;;1.50;0.93;;;19.50;97.10;;;;;;6124914;23;20759;-81
2022/08/21 06:31:56;;;;;;;1.50;0.90;;;19.60;97.20;;;;;;6128636;23;20445;-82
2022/08/21 06:34:26;;;;;;;1.50;0.90;;;19.80;97.10;;;;;;6143917;23;20819;-82
2022/08/21 06:40:17;;;;;;;1.50;0.90;;;20.10;95.20;;;;;;6131512;23;20469;-80
2022/08/21 06:42:47;;;;;;;1.50;0.90;;;20.20;94.90;;;;;;6118904;23;20445;-80
2022/08/21 06:45:22;;;;;;;1.50;0.90;;;20.40;94.30;;;;;;6097774;23;20434;-80
2022/08/21 06:47:49;;;;;;;1.50;0.90;;;20.50;94.10;;;;;;6093232;23;20457;-79
2022/08/21 06:50:17;;;;;;;1.50;1.00;;;20.70;94.00;;;;;;6104428;23;20420;-80
2022/08/21 06:52:48;;;;;;;1.50;1.00;;;20.80;93.40;;;;;;6105523;23;20907;-80
2022/08/21 06:55:30;;;;;;;1.50;0.90;;;21.00;93.30;;;;;;6104343;23;20481;-80
2022/08/21 07:01:02;;;;;;;1.50;0.90;;;21.40;91.70;;;;;;6091204;23;20471;-80
2022/08/21 07:03:32;;;;;;;1.50;0.90;;;21.60;91.40;;;;;;6103206;23;20415;-80
2022/08/21 07:06:10;;;;;;;1.50;0.90;;;21.70;91.30;;;;;;6091299;23;20422;-80
2022/08/21 07:08:51;;;;;;;1.50;0.90;;;22.00;90.30;;;;;;6121568;23;20442;-80
2022/08/21 07:11:26;;;;;;;1.50;0.90;;;22.20;90.20;;;;;;6085226;23;21066;-80
2022/08/21 07:13:58;;;;;;;1.50;0.90;;;22.40;89.70;;;;;;6118858;23;20948;-80
2022/08/21 07:16:27;;;;;;;1.50;0.90;;;22.50;89.30;;;;;;6092915;23;20482;-80
2022/08/21 07:18:56;;;;;;;1.50;0.90;;;22.70;89.00;;;;;;6092363;23;20454;-80
2022/08/21 07:21:27;;;;;;;1.50;0.90;;;22.90;88.30;;;;;;6087014;23;20492;-81
2022/08/21 07:24:23;;;;;;;1.50;0.90;;;23.10;87.20;;;;;;6117225;23;20450;-81
2022/08/21 07:26:50;;;;;;;1.50;0.90;;;23.20;86.60;;;;;;6098352;23;20469;-81
2022/08/21 07:29:28;;;;;;;1.50;0.90;;;23.30;86.50;;;;;;6099274;23;20478;-82
2022/08/21 07:31:59;;;;;;;1.50;0.90;;;23.40;86.30;;;;;;6092138;23;20460;-81
2022/08/21 07:34:27;;;;;;;1.50;0.90;;;23.60;85.20;;;;;;6098410;23;20455;-81
2022/08/21 07:36:58;;;;;;;1.50;0.90;;;23.70;84.50;;;;;;6090851;23;20836;-81
2022/08/21 07:39:56;;;;;;;1.50;0.90;;;23.80;84.20;;;;;;6111121;23;20468;-81
2022/08/21 07:45:32;;;;;;;1.50;0.90;;;24.00;84.60;;;;;;6095083;23;20426;-81
2022/08/21 07:48:51;;;;;;;1.43;0.90;;;24.10;84.50;;;;;;6095950;23;20819;-80
2022/08/21 07:51:38;;;;;;;1.50;0.80;;;24.20;82.90;;;;;;6099684;23;20457;-81
2022/08/21 07:54:28;;;;;;;1.50;0.90;;;24.40;82.50;;;;;;6097530;23;20456;-81
2022/08/21 08:03:13;;;;;;;1.50;0.80;;;24.90;80.50;;;;;;6095415;23;20959;-81
2022/08/21 08:05:41;;;;;;;1.50;0.80;;;25.00;79.60;;;;;;6099934;23;20525;-81
2022/08/21 08:08:28;;;;;;;1.50;0.90;;;25.20;79.20;;;;;;6098955;23;20490;-81
2022/08/21 08:11:05;;;;;;;1.50;0.90;;;25.30;79.30;;;;;;6101714;23;20434;-80
2022/08/21 08:14:15;;;;;;;1.50;0.80;;;25.40;78.20;;;;;;6103571;23;20635;-84
2022/08/21 08:17:04;;;;;;;1.50;0.90;;;25.60;77.70;;;;;;6096199;23;20563;-82
2022/08/21 08:19:32;;;;;;;1.50;0.90;;;25.70;78.70;;;;;;6109637;23;20454;-81
2022/08/21 08:25:27;;;;;;;1.50;0.90;;;25.90;76.90;;;;;;6025072;23;20417;-81
2022/08/21 08:27:57;;;;;;;1.50;0.80;;;26.20;76.70;;;;;;6096921;23;20453;-80
2022/08/21 08:30:42;;;;;;;1.50;0.90;;;26.30;76.60;;;;;;6098105;23;20423;-80
2022/08/21 08:33:11;;;;;;;1.50;0.80;;;26.50;75.40;;;;;;6097952;23;20844;-80
2022/08/21 08:39:53;;;;;;;1.47;0.90;;;26.60;73.70;;;;;;6100371;23;21016;-81
2022/08/21 08:46:13;;;;;;;1.50;0.80;;;26.90;73.50;;;;;;6068770;23;20458;-81
2022/08/21 08:49:12;;;;;;;1.50;1.00;;;27.00;72.10;;;;;;6055312;23;20737;-80
2022/08/21 08:51:45;;;;;;;1.47;0.80;;;27.10;71.50;;;;;;6063326;23;20892;-79
2022/08/21 08:54:19;;;;;;;1.50;0.80;;;27.20;71.90;;;;;;6074898;23;20435;-80
2022/08/21 08:56:47;;;;;;;1.50;0.90;;;27.30;72.30;;;;;;6065231;23;20450;-81
2022/08/21 08:59:20;;;;;;;1.47;0.80;;;27.50;72.20;;;;;;6081787;23;20451;-80
2022/08/21 09:01:51;;;;;;;1.50;0.80;;;27.70;70.50;;;;;;6063392;23;20453;-79
2022/08/21 09:04:28;;;;;;;1.50;0.80;;;27.80;69.40;;;;;;6083582;23;20426;-79
2022/08/21 09:07:22;;;;;;;1.50;0.90;;;27.80;69.50;;;;;;6067956;23;20561;-80
2022/08/21 09:10:44;;;;;;;1.40;0.80;;;27.90;69.50;;;;;;6076176;23;20925;-80
2022/08/21 09:13:23;;;;;;;1.50;0.80;;;27.90;69.70;;;;;;6043347;23;20446;-80
2022/08/21 09:16:21;;;;;;;1.50;0.80;;;28.00;70.40;;;;;;6059988;23;20446;-81
2022/08/21 09:18:57;;;;;;;1.43;0.80;;;28.00;70.20;;;;;;5971955;23;20878;-81
2022/08/21 09:25:07;;;;;;;1.43;0.90;;;28.00;69.60;;;;;;5935774;23;20575;-80
2022/08/21 09:27:35;;;;;;;1.43;0.80;;;28.10;68.60;;;;;;6072106;23;20545;-80
2022/08/21 09:30:04;;;;;;;1.50;0.80;;;28.20;69.10;;;;;;6066952;23;20953;-80
2022/08/21 09:32:44;;;;;;;1.50;0.80;;;28.30;69.10;;;;;;6074994;23;20454;-80
2022/08/21 09:35:19;;;;;;;1.40;0.80;;;28.50;68.40;;;;;;6075176;23;20470;-80
2022/08/21 09:37:51;;;;;;;1.47;0.80;;;28.60;68.10;;;;;;6090547;23;21049;-80
2022/08/21 09:40:33;;;;;;;1.47;0.80;;;28.60;68.40;;;;;;6076830;23;20625;-80
2022/08/21 09:43:03;;;;;;;1.43;0.80;;;28.60;68.40;;;;;;6076186;23;20489;-80
2022/08/21 09:45:35;;;;;;;1.43;0.80;;;28.60;68.60;;;;;;6065175;23;20458;-81
2022/08/21 09:48:26;;;;;;;1.43;0.80;;;28.70;68.40;;;;;;6073891;23;20450;-79
2022/08/21 09:51:13;;;;;;;1.40;0.80;;;28.80;68.50;;;;;;6050695;23;20455;-79
2022/08/21 09:53:47;;;;;;;1.50;0.80;;;29.00;68.10;;;;;;6088810;23;20770;-81
2022/08/21 09:59:44;;;;;;;1.43;0.80;;;29.10;67.20;;;;;;6081683;23;20518;-82
2022/08/21 10:02:47;;;;;;;1.50;0.90;;;29.20;67.80;;;;;;6064453;23;20457;-81
2022/08/21 10:05:25;;;;;;;2.03;1.83;;;29.30;68.00;;;;;;6059181;23;20486;-82
2022/08/21 10:08:04;;;;;;;;;;;;;;;;;;;;;
2022/08/21 10:10:36;;;;;;;1.43;0.80;;;29.00;68.40;;;;;;6073083;23;20510;-81
2022/08/21 10:13:12;;;;;;;1.43;0.80;;;29.00;66.80;;;;;;6076194;23;20525;-82
2022/08/21 10:15:49;;;;;;;1.50;0.80;;;29.10;68.30;;;;;;6063410;23;20421;-79
2022/08/21 10:18:24;;;;;;;1.40;0.80;;;29.20;68.20;;;;;;6043804;23;20450;-80
2022/08/21 10:21:30;;;;;;;1.43;0.80;;;29.50;67.30;;;;;;6054694;23;20422;-81
2022/08/21 10:24:20;;;;;;;1.47;0.80;;;29.70;67.10;;;;;;5951097;24;20426;-82
2022/08/21 10:26:58;;;;;;;1.50;0.80;;;29.90;66.70;;;;;;5929289;24;20733;-81
2022/08/21 10:33:07;;;;;;;1.50;0.83;;;30.30;65.30;;;;;;5927975;24;20546;-82
2022/08/21 10:45:40;;;;;;;1.47;0.80;;;30.20;64.20;;;;;;6084913;23;20433;-80
2022/08/21 10:48:15;;;;;;;1.40;0.90;;;29.90;65.10;;;;;;6101917;23;20463;-79
2022/08/21 10:51:04;;;;;;;1.40;0.80;;;30.00;64.60;;;;;;6098324;23;20431;-81
2022/08/21 10:53:57;;;;;;;1.50;0.80;;;30.10;64.10;;;;;;6088181;23;21053;-79
2022/08/21 10:56:27;;;;;;;1.47;0.80;;;30.20;65.70;;;;;;6085386;23;20430;-80
2022/08/21 10:59:22;;;;;;;1.47;0.80;;;30.20;64.90;;;;;;6094678;23;20500;-80
2022/08/21 11:01:58;;;;;;;1.43;0.80;;;30.40;63.90;;;;;;6094315;23;20426;-79
2022/08/21 11:04:30;;;;;;;1.47;0.87;;;30.50;63.20;;;;;;6095890;23;20771;-80
2022/08/21 11:07:09;;;;;;;1.43;0.80;;;30.50;64.40;;;;;;6072245;23;20924;-80
2022/08/21 11:09:42;;;;;;;1.47;0.80;;;30.40;63.50;;;;;;6077409;23;20454;-80
2022/08/21 11:12:35;;;;;;;1.43;0.80;;;30.30;64.60;;;;;;6058859;23;21023;-80
2022/08/21 11:15:41;;;;;;;1.47;0.80;;;30.40;65.30;;;;;;6069660;23;20479;-80
2022/08/21 11:18:21;;;;;;;1.47;0.90;;;30.70;64.00;;;;;;6064225;23;20552;-80
2022/08/21 11:20:59;;;;;;;1.43;0.80;;;31.00;63.00;;;;;;6067799;23;20415;-79
2022/08/21 11:24:30;;;;;;;1.47;0.80;;;31.00;63.30;;;;;;6059350;23;20466;-79
2022/08/21 11:27:06;;;;;;;1.43;0.80;;;31.00;62.50;;;;;;6006793;23;20435;-80
2022/08/21 11:29:37;;;;;;;1.43;0.80;;;31.00;62.20;;;;;;6065831;23;20450;-80
2022/08/21 11:32:26;;;;;;;1.43;0.80;;;31.00;63.40;;;;;;6061925;23;20529;-79
2022/08/21 11:35:10;;;;;;;1.47;0.80;;;31.20;63.60;;;;;;6071963;23;20458;-80
2022/08/21 11:41:21;;;;;;;1.47;0.80;;;31.60;61.10;;;;;;5969530;23;20421;-79
2022/08/21 11:44:17;;;;;;;1.43;0.80;;;31.70;61.50;;;;;;6007352;23;20432;-81
2022/08/21 11:47:18;;;;;;;1.50;0.80;;;31.70;61.30;;;;;;5987877;23;20452;-80
2022/08/21 11:50:02;;;;;;;1.47;0.80;;;31.80;60.80;;;;;;6007661;23;20439;-80
2022/08/21 11:52:51;;;;;;;1.47;0.80;;;31.90;61.40;;;;;;6078030;23;20773;-81
2022/08/21 11:55:31;;;;;;;1.50;0.80;;;31.90;62.50;;;;;;6059377;23;20435;-81
2022/08/21 11:58:05;;;;;;;1.43;0.80;;;32.00;60.50;;;;;;6098263;23;20457;-80
2022/08/21 12:00:35;;;;;;;1.60;1.10;;;32.00;60.30;;;;;;6058708;23;20510;-81
2022/08/21 12:03:10;;;;;;;1.43;0.80;;;32.00;60.40;;;;;;6087755;23;20452;-79
2022/08/21 12:05:43;;;;;;;1.43;0.80;;;32.10;59.10;;;;;;6066693;23;20426;-80
2022/08/21 12:08:17;;;;;;;1.47;0.80;;;32.00;59.60;;;;;;6089341;23;20656;-81
2022/08/21 12:11:00;;;;;;;1.47;0.80;;;32.00;60.20;;;;;;6067366;23;20190;-77
2022/08/21 12:13:29;;;;;;;1.40;0.80;;;32.00;59.00;;;;;;6041179;23;20439;-80
2022/08/21 12:16:08;;;;;;;1.40;0.80;;;32.00;59.40;;;;;;6067732;23;20462;-80
2022/08/21 12:18:37;;;;;;;1.40;0.80;;;32.10;59.40;;;;;;6063993;23;20458;-78
2022/08/21 12:24:50;;;;;;;1.43;0.80;;;31.90;60.20;;;;;;5916809;24;20418;-79
2022/08/21 12:27:25;;;;;;;1.43;0.80;;;31.90;61.30;;;;;;5973221;23;20827;-81
2022/08/21 12:29:56;;;;;;;1.43;0.80;;;32.10;60.50;;;;;;6069174;23;20504;-80
2022/08/21 12:32:30;;;;;;;1.50;0.97;;;32.20;60.60;;;;;;6086691;23;20429;-80
2022/08/21 12:35:08;;;;;;;1.40;0.80;;;32.30;59.90;;;;;;6098401;23;21012;-81
2022/08/21 12:37:51;;;;;;;1.43;0.80;;;32.20;60.30;;;;;;6102048;23;20460;-80
2022/08/21 12:43:44;;;;;;;1.43;0.80;;;32.10;59.70;;;;;;6092705;23;20220;-80
2022/08/21 12:46:18;;;;;;;1.43;0.80;;;31.90;58.00;;;;;;6081095;23;20500;-80
2022/08/21 12:49:02;;;;;;;1.50;0.90;;;32.00;60.00;;;;;;6113577;23;20999;-79
2022/08/21 12:51:51;;;;;;;1.40;0.80;;;32.10;59.40;;;;;;6081473;23;20460;-79
2022/08/21 12:54:29;;;;;;;1.43;0.80;;;32.20;58.40;;;;;;6110228;23;20449;-80
2022/08/21 12:57:29;;;;;;;;;;;;;;;;;;;;;
2022/08/21 13:03:30;;;;;;;1.50;0.80;;;32.30;59.20;;;;;;6090395;23;21063;-79
2022/08/21 13:09:35;;;;;;;1.47;0.80;;;32.40;59.30;;;;;;5955978;23;20766;-80
2022/08/21 13:12:08;;;;;;;1.40;0.80;;;32.60;56.80;;;;;;6064358;23;20594;-78
2022/08/21 13:15:43;;;;;;;1.43;0.80;;;32.60;58.80;;;;;;6075242;23;20446;-78
2022/08/21 13:20:46;;;;;;;1.40;0.80;;;32.60;57.10;;;;;;6089203;23;20616;-79
2022/08/21 13:26:54;;;;;;;1.43;0.80;;;32.80;57.10;;;;;;5942537;23;20195;-79
2022/08/21 13:29:24;;;;;;;1.40;0.80;;;32.80;58.00;;;;;;6051134;23;20450;-79
2022/08/21 13:31:55;;;;;;;1.40;0.80;;;32.80;55.80;;;;;;6059340;23;20273;-79
2022/08/21 13:40:13;;;;;;;1.80;1.10;;;32.60;57.70;;;;;;6086458;23;20860;-78
2022/08/21 13:42:44;;;;;;;1.40;0.80;;;32.30;58.30;;;;;;6097231;23;20193;-78
2022/08/21 13:45:20;;;;;;;1.47;0.80;;;32.20;59.00;;;;;;6096984;23;20414;-79
2022/08/21 13:47:55;;;;;;;1.40;0.80;;;32.40;58.60;;;;;;6097443;23;20240;-79
2022/08/21 13:50:25;;;;;;;1.40;0.80;;;32.50;57.90;;;;;;6068336;23;20198;-78
2022/08/21 13:53:02;;;;;;;1.40;0.80;;;32.70;56.50;;;;;;6091835;23;20236;-79
2022/08/21 13:55:41;;;;;;;1.40;0.80;;;32.90;56.30;;;;;;6095454;23;20591;-79
2022/08/21 13:58:09;;;;;;;1.40;0.80;;;32.90;54.30;;;;;;6117306;23;20213;-79
2022/08/21 14:00:46;;;;;;;1.40;0.80;;;32.80;55.40;;;;;;6096384;23;20184;-80
2022/08/21 14:03:28;;;;;;;1.40;0.80;;;32.60;54.70;;;;;;6067856;23;20536;-79
2022/08/21 14:05:58;;;;;;;1.40;0.80;;;32.50;56.10;;;;;;6073280;23;20426;-79
2022/08/21 14:08:31;;;;;;;1.40;0.80;;;32.60;55.80;;;;;;6127178;23;20212;-79
2022/08/21 14:11:01;;;;;;;1.40;0.80;;;32.60;55.80;;;;;;6084684;23;20433;-80
2022/08/21 14:13:40;;;;;;;1.40;0.80;;;32.70;57.00;;;;;;6138059;23;20413;-80
2022/08/21 14:16:18;;;;;;;1.40;0.80;;;32.80;55.70;;;;;;6087675;23;20438;-80
2022/08/21 14:19:09;;;;;;;1.40;0.80;;;32.60;56.30;;;;;;6130477;23;20289;-80
2022/08/21 14:21:39;;;;;;;1.40;0.80;;;32.60;56.60;;;;;;6086662;23;20975;-80
2022/08/21 14:24:29;;;;;;;1.40;0.80;;;32.80;56.90;;;;;;6091288;23;20182;-81
2022/08/21 14:27:02;;;;;;;1.40;0.80;;;33.00;55.80;;;;;;6096268;23;20812;-78
2022/08/21 14:29:37;;;;;;;1.40;0.80;;;32.90;55.10;;;;;;6095764;23;20232;-78
2022/08/21 14:32:11;;;;;;;1.40;0.80;;;33.00;54.70;;;;;;6105878;23;20278;-79
2022/08/21 14:34:39;;;;;;;1.40;0.80;;;32.90;55.10;;;;;;6109773;23;20639;-78
2022/08/21 14:37:17;;;;;;;1.40;0.80;;;33.00;54.00;;;;;;6103301;23;20475;-79
2022/08/21 14:39:54;;;;;;;1.40;0.80;;;33.00;54.40;;;;;;6106787;23;20933;-79
2022/08/21 14:45:21;;;;;;;1.40;0.80;;;32.70;54.50;;;;;;6069071;23;20261;-79
2022/08/21 14:47:49;;;;;;;1.40;0.80;;;32.60;54.40;;;;;;6119680;23;20219;-79